Friday, April 27, 2018, 6:19 AM GMT
Back to Local

CYPD, Port Hawkesbury

Location: , , Canada Lat: 45.667
Local Time: 6:19 AM GMT ( 6:19 GMT) Lon: -61.383
Time Zone: GMT Elev: 374 ft

Show me the last for .
Show Coded

Time T Td Feel RH Dir Speed Gust Alt SLP Vis Weather Sky Remarks
2018-04-27 04:50 50 50 46 100 200° 10 - 29.72 29.74 6 BR OVC004 None
2018-04-27 04:33 50 50 47 100 200° 8 - 29.73 29.74 3 BR OVC004 None
2018-04-27 04:00 50 50 44 100 160° 8 18 29.73 29.74 5 BR OVC004 None
2018-04-27 03:11 52 50 - 93 180° 10 - 29.74 29.75 5 BR OVC004 None
2018-04-27 01:00 52 52 - 100 150° 8 - 29.78 29.79 2 -RA BR OVC002 None
2018-04-26 23:41 52 52 - 100 170° 16 24 29.78 29.80 2 -RA BR OVC004 None
2018-04-26 22:44 52 52 - 100 180° 18 33 29.77 29.78 9 -RA OVC004 None
2018-04-26 22:33 52 52 - 100 170° 18 32 29.78 29.79 9 OVC004 None
2018-04-26 21:17 54 52 - 93 170° 22 36 29.78 29.79 2 RA BR OVC004 None
2018-04-26 21:02 52 52 - 100 170° 18 36 29.79 29.80 3 -RA BR OVC004 None
2018-04-26 21:00 52 52 - 100 160° 23 36 29.78 29.80 2 -RA BR OVC004 None
2018-04-26 20:51 52 52 - 100 160° 23 35 29.79 29.80 2 -RA BR OVC004 None
2018-04-26 20:00 52 50 - 93 140° 18 35 29.82 29.83 3 RA BR OVC004 None
2018-04-26 19:47 52 52 - 100 140° 22 35 29.83 29.84 5 -RA BR OVC004 None
2018-04-26 19:38 52 52 - 100 140° 21 33 29.84 29.85 6 -RA BR OVC004 Pressure falling rapidly
2018-04-26 19:00 50 48 43 93 130° 15 22 29.87 29.89 3 -RA BR OVC004 None
2018-04-26 18:42 48 48 41 100 130° 14 23 29.89 29.90 3 -RA BR OVC004 Pressure falling rapidly
2018-04-26 18:16 48 48 41 100 120° 14 20 29.91 29.93 2 RA BR OVC004 None
2018-04-26 18:00 48 48 41 100 120° 15 21 29.92 29.94 3 -RA BR OVC004 Pressure falling rapidly
2018-04-26 17:00 50 48 42 93 140° 16 29 29.96 29.98 3 -RA BR OVC004 None
2018-04-26 16:49 50 48 42 93 140° 17 29 29.97 29.98 5 -RA BR OVC004 None
2018-04-26 16:27 52 50 - 93 140° 17 28 29.97 29.98 9 -RA OVC006 None
2018-04-26 16:12 52 50 - 93 140° 16 24 29.98 30.00 9 OVC006 None
2018-04-26 16:00 52 48 - 87 140° 16 22 29.99 30.00 9 -RA OVC006 None
2018-04-26 15:48 52 50 - 93 140° 14 25 30.00 30.01 9 -RA OVC006 Pressure falling rapidly
2018-04-26 15:00 50 48 44 93 130° 13 18 30.04 30.05 9 OVC008 None
2018-04-26 14:44 50 48 44 93 130° 13 20 30.04 30.06 9 OVC008 None
2018-04-26 14:23 50 48 45 93 130° 14 - 30.05 30.06 9 -RA OVC008 None
2018-04-26 14:00 50 48 43 93 140° 12 21 30.06 30.07 9 OVC010 None
2018-04-26 13:55 50 48 43 93 130° 13 21 30.06 30.07 9 OVC010 None
2018-04-26 13:40 50 48 43 93 130° 13 21 30.07 30.08 9 -RA OVC012 None
2018-04-26 13:39 50 48 43 93 130° 13 21 30.07 30.08 9 OVC012 None
2018-04-26 13:15 52 48 - 87 140° 15 - 30.08 30.09 9 -RA BKN014 OVC027 None
2018-04-26 13:01 52 48 - 87 140° 10 17 30.09 30.10 9 -RA FEW014 BKN029 BKN039 OVC049 None
2018-04-26 13:00 52 46 - 81 140° 9 17 30.09 30.10 9 FEW014 BKN029 BKN039 OVC049 None
2018-04-26 12:00 52 48 - 87 150° 13 25 30.10 30.11 9 SCT029 SCT043 BKN060 None
2018-04-26 11:00 52 48 - 87 170° 12 18 30.12 30.13 9 BKN033 None
2018-04-26 10:19 46 45 44 93 140° 6 - 30.12 30.14 9 SCT011 BKN025 OVC031 None
2018-04-26 10:02 46 45 43 93 70° 7 - 30.13 30.14 9 BKN011 BKN027 BKN034 None
2018-04-26 10:00 46 45 43 93 70° 7 - 30.13 30.14 9 SCT011 BKN027 BKN034 None
2018-04-26 09:00 43 41 38 93 100° 8 - 30.14 30.15 9 FEW032 BKN150 None
2018-04-26 08:00 43 41 39 93 80° 6 - 30.15 30.16 9 BKN140 None
2018-04-26 07:00 43 41 37 93 100° 9 - 30.17 30.18 9 OVC170 None

Support USWX by starting your Amazon purchase here.